Time;durP1;ratioP1;P1;durP2;ratioP2;P2;SDS_P1;SDS_P2;PMS_P1;PMS_P2;Temp;Humidity;BMP_temperature;BMP_pressure;BME280_temperature;BME280_humidity;BME280_pressure;Samples;Min_cycle;Max_cycle;Signal;HPM_P1;HPM_P2
2021/12/15 00:01:34;;;;;;;57.77;30.83;;;8.80;99.90;;;;;;5059336;28;20179;-73
2021/12/15 00:04:01;;;;;;;59.07;30.33;;;8.80;99.90;;;;;;5058757;28;20221;-74
2021/12/15 00:06:27;;;;;;;62.40;32.43;;;8.70;99.90;;;;;;5078156;28;20257;-73
2021/12/15 00:08:55;;;;;;;58.37;30.70;;;8.70;99.90;;;;;;5059370;28;20194;-73
2021/12/15 00:11:23;;;;;;;57.17;30.37;;;8.80;99.90;;;;;;5056735;28;20171;-72
2021/12/15 00:13:52;;;;;;;58.47;31.03;;;8.70;99.90;;;;;;5055978;28;20199;-72
2021/12/15 00:16:17;;;;;;;58.73;29.97;;;8.70;99.90;;;;;;5055440;28;20217;-72
2021/12/15 00:18:44;;;;;;;58.13;29.67;;;8.80;99.90;;;;;;5055490;28;20650;-73
2021/12/15 00:21:18;;;;;;;57.90;29.87;;;8.70;99.90;;;;;;5056261;28;20225;-73
2021/12/15 00:23:45;;;;;;;56.27;29.73;;;8.70;99.90;;;;;;5055452;28;20217;-73
2021/12/15 00:26:12;;;;;;;55.67;27.90;;;8.80;99.90;;;;;;5056168;28;20203;-73
2021/12/15 00:28:38;;;;;;;59.90;30.60;;;8.80;99.90;;;;;;5060494;28;20167;-72
2021/12/15 00:31:05;;;;;;;56.47;29.27;;;8.80;99.90;;;;;;5055864;28;20170;-72
2021/12/15 00:33:32;;;;;;;57.80;29.83;;;8.70;99.90;;;;;;5055667;28;20209;-72
2021/12/15 00:35:58;;;;;;;56.20;30.27;;;8.70;99.90;;;;;;5073649;28;20167;-73
2021/12/15 00:38:24;;;;;;;56.23;28.50;;;8.70;99.90;;;;;;5038709;28;20167;-73
2021/12/15 00:40:50;;;;;;;59.20;29.37;;;8.70;99.90;;;;;;5073979;28;20623;-73
2021/12/15 00:43:19;;;;;;;62.93;30.57;;;8.70;99.90;;;;;;5055228;28;20199;-74
2021/12/15 00:45:45;;;;;;;60.87;28.97;;;8.70;99.90;;;;;;5055422;28;20209;-73
2021/12/15 00:48:12;;;;;;;57.33;28.93;;;8.70;99.90;;;;;;5054869;28;20170;-73
2021/12/15 00:50:39;;;;;;;56.17;28.17;;;8.70;99.90;;;;;;5056182;28;20171;-73
2021/12/15 00:53:05;;;;;;;61.00;31.30;;;8.70;99.90;;;;;;5055562;28;20195;-74
2021/12/15 00:55:31;;;;;;;57.50;29.07;;;8.70;99.90;;;;;;5055286;28;20257;-73
2021/12/15 00:57:59;;;;;;;60.93;28.73;;;8.70;99.90;;;;;;5054901;28;20185;-73
2021/12/15 01:00:29;;;;;;;56.47;28.43;;;8.70;99.90;;;;;;5073517;28;20171;-75
2021/12/15 01:02:56;;;;;;;61.13;30.07;;;8.70;99.90;;;;;;5054772;28;20214;-73
2021/12/15 01:05:25;;;;;;;61.50;31.27;;;8.70;99.90;;;;;;5073015;28;20210;-73
2021/12/15 01:07:51;;;;;;;60.23;29.53;;;8.70;99.90;;;;;;5072523;28;20284;-73
2021/12/15 01:10:27;;;;;;;60.87;29.50;;;8.70;99.90;;;;;;5055249;28;20547;-72
2021/12/15 01:21:03;;;;;;;58.77;27.70;;;8.70;99.90;;;;;;5073088;28;20229;-73
2021/12/15 01:23:31;;;;;;;62.53;28.30;;;8.70;99.90;;;;;;5054493;28;20285;-73
2021/12/15 01:26:14;;;;;;;58.83;29.83;;;8.70;99.90;;;;;;5054473;28;20210;-73
2021/12/15 01:28:40;;;;;;;57.37;29.80;;;8.70;99.90;;;;;;5072035;28;20170;-73
2021/12/15 01:31:08;;;;;;;60.47;28.17;;;8.70;99.90;;;;;;5054562;28;20167;-73
2021/12/15 01:33:35;;;;;;;60.27;30.70;;;8.70;99.90;;;;;;5054406;28;20211;-73
2021/12/15 01:36:04;;;;;;;57.30;27.47;;;8.70;99.90;;;;;;5054625;28;20195;-74
2021/12/15 01:38:32;;;;;;;57.73;26.97;;;8.70;99.90;;;;;;5054034;28;20194;-72
2021/12/15 01:41:00;;;;;;;55.17;28.53;;;8.70;99.90;;;;;;5054307;28;20163;-73
2021/12/15 01:43:51;;;;;;;55.63;28.40;;;8.70;99.90;;;;;;5054139;28;20187;-75
2021/12/15 01:49:12;;;;;;;57.83;28.07;;;8.70;99.90;;;;;;5071850;28;20217;-73
2021/12/15 01:51:38;;;;;;;54.77;26.27;;;8.70;99.90;;;;;;5054349;28;20262;-73
2021/12/15 01:54:06;;;;;;;53.27;26.53;;;8.70;99.90;;;;;;5053983;28;20222;-75
2021/12/15 01:56:32;;;;;;;62.03;29.57;;;8.70;99.90;;;;;;5072182;28;20256;-73
2021/12/15 01:58:58;;;;;;;60.17;28.50;;;8.70;99.90;;;;;;5051534;28;20706;-73
2021/12/15 02:01:25;;;;;;;57.10;28.23;;;8.70;99.90;;;;;;5051317;28;20664;-74
2021/12/15 02:03:51;;;;;;;50.23;27.30;;;8.70;99.90;;;;;;5069318;28;20275;-76
2021/12/15 02:06:17;;;;;;;51.90;27.93;;;8.70;99.90;;;;;;5053858;28;20623;-73
2021/12/15 02:08:45;;;;;;;54.63;27.70;;;8.70;99.90;;;;;;5053422;28;20162;-73
2021/12/15 02:11:10;;;;;;;55.53;27.23;;;8.80;99.90;;;;;;5053929;28;20182;-73
2021/12/15 02:13:37;;;;;;;55.67;26.13;;;8.70;99.90;;;;;;5072281;28;20183;-71
2021/12/15 02:16:05;;;;;;;49.43;25.40;;;8.80;99.90;;;;;;5053855;28;20178;-71
2021/12/15 02:18:34;;;;;;;54.93;26.40;;;8.70;99.90;;;;;;5053301;28;20194;-71
2021/12/15 02:21:04;;;;;;;49.97;25.43;;;8.70;99.90;;;;;;5053822;28;20225;-71
2021/12/15 02:23:37;;;;;;;53.80;26.43;;;8.70;99.90;;;;;;5053733;28;20199;-73
2021/12/15 02:26:08;;;;;;;53.53;26.53;;;8.80;99.90;;;;;;5053818;28;20190;-71
2021/12/15 02:28:37;;;;;;;48.80;25.40;;;8.80;99.90;;;;;;5071410;28;20704;-71
2021/12/15 02:31:14;;;;;;;55.77;26.90;;;8.80;99.90;;;;;;5053749;28;20203;-72
2021/12/15 02:33:52;;;;;;;48.20;24.80;;;8.80;99.90;;;;;;5053576;28;20192;-74
2021/12/15 02:39:06;;;;;;;49.80;25.37;;;8.80;99.90;;;;;;5072644;28;20209;-71
2021/12/15 02:41:33;;;;;;;44.27;22.03;;;8.80;99.90;;;;;;5057777;28;20175;-72
2021/12/15 02:44:10;;;;;;;46.00;24.13;;;8.80;99.90;;;;;;5057353;28;20199;-72
2021/12/15 02:46:37;;;;;;;47.13;23.73;;;8.70;99.90;;;;;;5076034;28;20623;-72
2021/12/15 02:49:06;;;;;;;48.43;24.40;;;8.80;99.90;;;;;;5075529;28;20163;-71
2021/12/15 02:51:32;;;;;;;47.13;23.40;;;8.80;99.90;;;;;;5060205;28;20175;-71
2021/12/15 02:53:59;;;;;;;45.17;23.17;;;8.70;99.90;;;;;;5060588;28;20187;-74
2021/12/15 02:56:25;;;;;;;50.00;25.43;;;8.80;99.90;;;;;;5075462;28;20171;-72
2021/12/15 02:58:57;;;;;;;47.37;23.67;;;8.70;99.90;;;;;;5056988;28;20179;-72
2021/12/15 03:01:40;;;;;;;49.67;23.93;;;8.70;99.90;;;;;;5057446;28;20173;-72
2021/12/15 03:06:47;;;;;;;44.47;23.47;;;8.80;99.90;;;;;;5075266;28;20163;-71
2021/12/15 03:17:01;;;;;;;47.83;25.50;;;8.80;99.90;;;;;;5055228;28;20249;-69
2021/12/15 03:19:27;;;;;;;44.53;23.13;;;8.80;99.90;;;;;;5054684;28;20176;-71
2021/12/15 03:21:53;;;;;;;49.33;24.30;;;8.80;99.90;;;;;;5053701;28;20266;-72
2021/12/15 03:24:23;;;;;;;43.27;23.37;;;8.80;99.90;;;;;;5055007;28;20580;-73
2021/12/15 03:27:00;;;;;;;47.37;23.33;;;8.80;99.90;;;;;;5054943;28;20650;-71
2021/12/15 03:37:41;;;;;;;48.80;23.93;;;8.80;99.90;;;;;;5054516;28;20259;-73
2021/12/15 03:40:16;;;;;;;41.10;23.43;;;8.80;99.90;;;;;;5053155;28;20171;-72
2021/12/15 03:43:12;;;;;;;46.77;23.37;;;8.80;99.90;;;;;;5053159;28;20857;-72
2021/12/15 03:45:46;;;;;;;49.07;23.53;;;8.80;99.90;;;;;;5053460;28;20569;-71
2021/12/15 03:48:15;;;;;;;48.27;24.47;;;8.80;99.90;;;;;;5052692;28;20184;-74
2021/12/15 03:50:45;;;;;;;47.13;23.90;;;8.80;99.90;;;;;;5052838;28;20221;-72
2021/12/15 03:53:12;;;;;;;45.77;24.63;;;8.80;99.90;;;;;;5052856;28;20285;-71
2021/12/15 03:55:40;;;;;;;44.93;23.33;;;8.80;99.90;;;;;;5052957;28;20306;-71
2021/12/15 03:58:10;;;;;;;47.17;23.47;;;8.80;99.90;;;;;;5053965;28;20673;-71
2021/12/15 04:00:39;;;;;;;47.07;23.70;;;8.80;99.90;;;;;;5052989;28;20176;-71
2021/12/15 04:03:05;;;;;;;45.30;23.80;;;8.80;99.90;;;;;;5078030;22;20226;-75
2021/12/15 04:05:31;;;;;;;42.43;22.83;;;8.80;99.90;;;;;;5072595;28;20211;-75
2021/12/15 04:07:57;;;;;;;41.40;22.27;;;8.80;99.90;;;;;;5072298;28;20171;-75
2021/12/15 04:10:26;;;;;;;42.50;22.53;;;8.80;99.90;;;;;;5072700;28;20176;-75
2021/12/15 04:12:52;;;;;;;39.30;21.00;;;8.70;99.90;;;;;;5077205;28;20167;-74
2021/12/15 04:17:44;;;;;;;40.57;22.73;;;8.80;99.90;;;;;;5114939;28;20269;-77
2021/12/15 04:20:14;;;;;;;42.23;21.50;;;8.80;99.90;;;;;;5100135;28;20241;-77
2021/12/15 04:22:41;;;;;;;41.40;22.53;;;8.80;99.90;;;;;;5116272;28;20630;-78
2021/12/15 04:25:13;;;;;;;45.33;22.93;;;8.80;99.90;;;;;;5114208;28;20723;-77
2021/12/15 04:27:39;;;;;;;45.30;24.63;;;8.80;99.90;;;;;;5095171;28;20177;-76
2021/12/15 04:30:08;;;;;;;46.90;23.33;;;8.80;99.90;;;;;;5096844;28;20166;-76
2021/12/15 04:32:41;;;;;;;42.87;23.03;;;8.80;99.90;;;;;;5096945;28;20198;-75
2021/12/15 04:35:08;;;;;;;41.07;22.33;;;8.70;99.90;;;;;;5115583;28;20214;-75
2021/12/15 04:37:34;;;;;;;47.37;24.27;;;8.80;99.90;;;;;;5096868;28;20180;-75
2021/12/15 04:40:01;;;;;;;41.90;21.47;;;8.70;99.90;;;;;;5096542;28;20551;-75
2021/12/15 04:42:27;;;;;;;44.60;23.43;;;8.80;99.90;;;;;;5096926;28;20618;-75
2021/12/15 04:44:56;;;;;;;39.53;21.70;;;8.80;99.90;;;;;;5096707;28;20207;-75
2021/12/15 04:47:23;;;;;;;41.97;21.30;;;8.80;99.90;;;;;;5096403;28;20173;-75
2021/12/15 04:49:54;;;;;;;37.87;20.83;;;8.80;99.90;;;;;;5096281;28;20193;-75
2021/12/15 04:52:22;;;;;;;44.20;23.53;;;8.80;99.90;;;;;;5114452;28;20633;-75
2021/12/15 04:54:48;;;;;;;39.70;21.63;;;8.80;99.90;;;;;;5095458;28;20251;-75
2021/12/15 04:57:16;;;;;;;36.20;19.80;;;8.80;99.90;;;;;;5095758;28;20169;-75
2021/12/15 04:59:43;;;;;;;38.93;20.03;;;8.80;99.90;;;;;;5095411;28;20601;-75
2021/12/15 05:02:09;;;;;;;34.63;18.60;;;8.70;99.90;;;;;;5096470;28;20272;-75
2021/12/15 05:04:35;;;;;;;38.27;20.33;;;8.70;99.90;;;;;;5113967;28;20238;-75
2021/12/15 05:07:02;;;;;;;37.60;20.93;;;8.70;99.90;;;;;;5096403;28;20166;-75
2021/12/15 05:09:27;;;;;;;40.77;21.73;;;8.70;99.90;;;;;;5114086;28;20169;-75
2021/12/15 05:11:54;;;;;;;34.80;20.93;;;8.70;99.90;;;;;;5096530;28;20180;-75
2021/12/15 05:14:21;;;;;;;35.23;19.67;;;8.80;99.90;;;;;;5095805;28;20205;-74
2021/12/15 05:16:48;;;;;;;37.73;20.63;;;8.70;99.90;;;;;;5095011;28;20620;-75
2021/12/15 05:19:14;;;;;;;39.30;20.30;;;8.80;99.90;;;;;;5094504;28;20614;-75
2021/12/15 05:21:40;;;;;;;39.60;21.97;;;8.80;99.90;;;;;;5095249;28;20178;-75
2021/12/15 05:24:22;;;;;;;39.60;20.93;;;8.80;99.90;;;;;;5095369;28;20201;-75
2021/12/15 05:26:49;;;;;;;36.83;19.90;;;8.80;99.90;;;;;;5113407;28;20637;-75
2021/12/15 05:29:15;;;;;;;34.30;19.40;;;8.80;99.90;;;;;;5095215;28;20193;-75
2021/12/15 05:31:41;;;;;;;39.20;21.07;;;8.80;99.90;;;;;;5096644;28;20212;-74
2021/12/15 05:34:07;;;;;;;40.20;21.70;;;8.80;99.90;;;;;;5095689;28;20290;-74
2021/12/15 05:36:32;;;;;;;37.67;20.43;;;8.80;99.90;;;;;;5114149;28;20176;-75
2021/12/15 05:38:58;;;;;;;39.07;20.63;;;8.80;99.90;;;;;;5094433;28;20169;-76
2021/12/15 05:41:25;;;;;;;40.43;22.60;;;8.80;99.90;;;;;;5094409;28;20173;-75
2021/12/15 05:43:52;;;;;;;37.40;20.73;;;8.80;99.90;;;;;;5094312;28;20198;-75
2021/12/15 05:46:18;;;;;;;35.73;20.47;;;8.80;99.90;;;;;;5094462;28;20234;-75
2021/12/15 05:48:44;;;;;;;38.77;20.87;;;8.80;99.90;;;;;;5112117;28;20177;-75
2021/12/15 05:51:09;;;;;;;36.00;20.00;;;8.80;99.90;;;;;;5112714;28;20650;-75
2021/12/15 05:53:35;;;;;;;39.37;20.47;;;8.80;99.90;;;;;;5093987;28;20220;-75
2021/12/15 05:56:01;;;;;;;40.00;22.03;;;8.80;99.90;;;;;;5093826;28;20273;-75
2021/12/15 05:58:28;;;;;;;34.73;20.37;;;8.80;99.90;;;;;;5112009;28;20182;-75
2021/12/15 06:00:53;;;;;;;36.20;20.50;;;8.80;99.90;;;;;;5094164;28;20218;-75
2021/12/15 06:03:19;;;;;;;39.83;20.33;;;8.80;99.90;;;;;;5093859;28;20217;-75
2021/12/15 06:05:45;;;;;;;35.47;20.00;;;8.80;99.90;;;;;;5093914;28;20201;-75
2021/12/15 06:08:11;;;;;;;37.73;20.20;;;8.80;99.90;;;;;;5112136;28;20510;-75
2021/12/15 06:10:39;;;;;;;38.00;20.57;;;8.80;99.90;;;;;;5094094;28;20545;-77
2021/12/15 06:13:07;;;;;;;41.87;20.37;;;8.80;99.90;;;;;;5093327;28;20186;-77
2021/12/15 06:15:33;;;;;;;36.70;20.33;;;8.80;99.90;;;;;;5093659;28;20185;-77
2021/12/15 06:18:04;;;;;;;38.30;20.60;;;8.80;99.90;;;;;;5093338;28;20256;-77
2021/12/15 06:20:30;;;;;;;39.23;20.57;;;8.80;99.90;;;;;;5112256;28;20630;-77
2021/12/15 06:22:59;;;;;;;35.30;19.63;;;8.80;99.90;;;;;;5093816;28;20231;-77
2021/12/15 06:25:25;;;;;;;35.70;20.13;;;8.80;99.90;;;;;;5093690;28;20209;-77
2021/12/15 06:27:51;;;;;;;32.07;18.90;;;8.80;99.90;;;;;;5093397;28;20213;-77
2021/12/15 06:30:17;;;;;;;33.40;19.27;;;8.90;99.90;;;;;;5093783;28;20196;-77
2021/12/15 06:32:43;;;;;;;36.63;22.00;;;8.90;99.90;;;;;;5093446;28;20572;-77
2021/12/15 06:35:09;;;;;;;57.20;33.50;;;8.90;99.90;;;;;;5093831;28;20587;-77
2021/12/15 06:37:35;;;;;;;32.10;19.17;;;8.90;99.90;;;;;;5093529;28;20268;-77
2021/12/15 06:40:07;;;;;;;36.90;18.97;;;8.90;99.90;;;;;;5093217;28;20260;-78
2021/12/15 06:42:34;;;;;;;30.47;18.50;;;8.90;99.90;;;;;;5093582;28;20229;-77
2021/12/15 06:44:59;;;;;;;29.93;17.73;;;8.90;99.90;;;;;;5093273;28;20221;-77
2021/12/15 06:58:24;;;;;;;33.57;17.90;;;9.00;99.90;;;;;;5111286;28;20218;-77
2021/12/15 07:00:55;;;;;;;31.13;17.10;;;8.90;99.90;;;;;;5093421;28;20587;-78
2021/12/15 07:03:24;;;;;;;31.53;17.50;;;9.00;99.90;;;;;;5092894;28;20217;-77
2021/12/15 07:05:50;;;;;;;30.40;17.67;;;9.00;99.90;;;;;;5094071;28;20266;-78
2021/12/15 07:08:17;;;;;;;30.17;17.53;;;9.00;99.90;;;;;;5092990;28;20204;-77
2021/12/15 07:10:48;;;;;;;30.00;17.00;;;9.00;99.90;;;;;;5093381;28;20173;-78
2021/12/15 07:13:14;;;;;;;29.97;17.60;;;9.00;99.90;;;;;;5093265;28;20193;-77
2021/12/15 07:15:41;;;;;;;31.53;17.67;;;9.00;99.90;;;;;;5093270;28;20223;-77
2021/12/15 07:18:10;;;;;;;35.37;19.37;;;9.00;99.90;;;;;;5092911;28;20178;-78
2021/12/15 07:20:44;;;;;;;29.23;16.90;;;9.00;99.90;;;;;;5111449;28;20625;-78
2021/12/15 07:23:16;;;;;;;28.50;16.97;;;9.00;99.90;;;;;;5092919;28;20193;-78
2021/12/15 07:25:45;;;;;;;30.63;17.30;;;9.00;99.90;;;;;;5113141;28;20212;-77
2021/12/15 07:28:13;;;;;;;27.40;16.33;;;9.00;99.90;;;;;;5096546;28;20175;-77
2021/12/15 07:30:40;;;;;;;31.63;17.53;;;9.00;99.90;;;;;;5096631;28;20178;-77
2021/12/15 07:33:09;;;;;;;28.43;16.27;;;9.00;99.90;;;;;;5096671;28;20194;-77
2021/12/15 07:35:35;;;;;;;30.17;17.00;;;9.00;99.90;;;;;;5097103;28;20174;-77
2021/12/15 07:38:01;;;;;;;30.07;16.67;;;9.00;99.90;;;;;;5096517;28;20193;-77
2021/12/15 07:40:27;;;;;;;23.70;15.43;;;8.90;99.90;;;;;;5097045;28;20173;-78
2021/12/15 07:43:08;;;;;;;26.23;15.13;;;9.00;99.90;;;;;;5096908;28;20534;-77
2021/12/15 07:45:51;;;;;;;26.70;15.33;;;9.00;99.90;;;;;;5096780;28;20228;-77
2021/12/15 07:48:19;;;;;;;29.37;17.23;;;9.00;99.90;;;;;;5096418;28;20213;-77
2021/12/15 07:50:46;;;;;;;27.63;16.73;;;9.00;99.90;;;;;;5096328;28;20256;-78
2021/12/15 07:53:14;;;;;;;30.70;17.20;;;9.10;99.90;;;;;;5096204;28;20193;-77
2021/12/15 07:55:41;;;;;;;27.30;15.57;;;9.00;99.90;;;;;;5096789;28;20270;-77
2021/12/15 07:58:09;;;;;;;30.63;15.83;;;9.10;99.90;;;;;;5096553;28;20185;-77
2021/12/15 08:00:37;;;;;;;25.30;15.13;;;9.10;99.90;;;;;;5096806;28;20238;-77
2021/12/15 08:03:04;;;;;;;27.63;15.73;;;9.10;99.90;;;;;;5114544;28;20259;-78
2021/12/15 08:05:29;;;;;;;26.60;15.97;;;9.00;99.90;;;;;;5096375;28;20212;-77
2021/12/15 08:07:55;;;;;;;24.47;15.63;;;9.10;99.90;;;;;;5095617;28;20177;-77
2021/12/15 08:10:21;;;;;;;23.27;14.47;;;9.10;99.90;;;;;;5114482;28;20173;-78
2021/12/15 08:12:48;;;;;;;23.57;15.47;;;9.10;99.90;;;;;;5095963;28;20174;-78
2021/12/15 08:15:16;;;;;;;27.67;15.77;;;9.10;99.90;;;;;;5114425;28;20261;-78
2021/12/15 08:17:43;;;;;;;23.80;13.83;;;9.10;99.90;;;;;;5114167;28;20913;-77
2021/12/15 08:20:11;;;;;;;21.80;14.37;;;9.10;99.90;;;;;;5095785;28;20217;-78
2021/12/15 08:22:38;;;;;;;23.23;15.03;;;9.20;99.90;;;;;;5096081;28;20174;-78
2021/12/15 08:25:08;;;;;;;23.10;14.40;;;9.20;99.90;;;;;;5113941;28;20581;-78
2021/12/15 08:27:35;;;;;;;51.40;31.67;;;9.20;99.90;;;;;;5114400;28;20158;-77
2021/12/15 08:30:01;;;;;;;36.27;20.93;;;9.20;99.90;;;;;;5113976;28;20260;-78
2021/12/15 08:32:26;;;;;;;25.07;15.50;;;9.20;99.90;;;;;;5096034;28;20178;-78
2021/12/15 08:34:52;;;;;;;23.33;14.13;;;9.20;99.90;;;;;;5113937;28;20607;-77
2021/12/15 08:37:18;;;;;;;21.87;13.73;;;9.20;99.90;;;;;;5112954;28;20185;-78
2021/12/15 08:39:45;;;;;;;23.13;13.90;;;9.20;99.90;;;;;;5095599;28;20622;-78
2021/12/15 08:42:12;;;;;;;24.37;14.73;;;9.20;99.90;;;;;;5095735;28;20177;-78
2021/12/15 08:44:38;;;;;;;25.67;14.73;;;9.20;99.90;;;;;;5095360;28;20210;-78
2021/12/15 08:47:06;;;;;;;24.27;14.73;;;9.20;99.90;;;;;;5095676;28;20166;-77
2021/12/15 08:49:32;;;;;;;25.37;15.37;;;9.20;99.90;;;;;;5113509;28;20185;-77
2021/12/15 08:51:58;;;;;;;24.47;15.30;;;9.30;99.90;;;;;;5095768;28;20170;-77
2021/12/15 08:54:24;;;;;;;25.30;15.33;;;9.30;99.90;;;;;;5113777;28;20206;-76
2021/12/15 08:56:52;;;;;;;26.53;15.67;;;9.30;99.90;;;;;;5096272;28;20183;-78
2021/12/15 08:59:18;;;;;;;27.47;15.33;;;9.30;99.90;;;;;;5094999;28;20261;-78
2021/12/15 09:01:45;;;;;;;23.23;14.70;;;9.30;99.90;;;;;;5095552;28;20181;-78
2021/12/15 09:04:12;;;;;;;24.93;15.30;;;9.30;99.90;;;;;;5094783;28;20695;-78
2021/12/15 09:06:39;;;;;;;24.37;15.70;;;9.40;99.90;;;;;;5113283;28;20204;-77
2021/12/15 09:09:08;;;;;;;28.03;16.03;;;9.40;99.90;;;;;;5094897;28;20459;-77
2021/12/15 09:11:34;;;;;;;21.80;14.53;;;9.40;99.90;;;;;;5095400;28;20258;-77
2021/12/15 09:14:01;;;;;;;22.53;14.30;;;9.40;99.90;;;;;;5095822;28;20197;-77
2021/12/15 09:16:30;;;;;;;27.00;15.50;;;9.40;99.90;;;;;;5095300;28;20174;-78
2021/12/15 09:18:59;;;;;;;24.43;16.00;;;9.50;99.90;;;;;;5095113;28;20197;-77
2021/12/15 09:21:27;;;;;;;26.50;15.03;;;9.50;99.90;;;;;;5095001;28;20192;-77
2021/12/15 09:23:53;;;;;;;23.63;14.03;;;9.50;99.90;;;;;;5115988;28;20189;-78
2021/12/15 09:26:20;;;;;;;26.70;16.03;;;9.60;99.90;;;;;;5115603;28;20169;-77
2021/12/15 09:28:47;;;;;;;24.83;14.33;;;9.60;99.90;;;;;;5115163;28;20157;-76
2021/12/15 09:31:14;;;;;;;25.97;16.37;;;9.60;99.90;;;;;;5096111;28;20177;-77
2021/12/15 09:33:45;;;;;;;23.47;14.10;;;9.70;99.90;;;;;;5094949;28;20314;-76
2021/12/15 09:36:14;;;;;;;47.33;29.20;;;9.60;99.90;;;;;;5094036;28;20188;-76
2021/12/15 09:38:41;;;;;;;54.63;33.53;;;9.70;99.90;;;;;;5094591;28;20178;-76
2021/12/15 09:41:10;;;;;;;32.73;18.97;;;9.70;99.90;;;;;;5094169;28;20204;-76
2021/12/15 09:43:37;;;;;;;29.47;18.73;;;9.70;99.90;;;;;;5094090;28;20193;-76
2021/12/15 09:46:37;;;;;;;31.07;19.47;;;9.80;99.90;;;;;;5094378;28;20201;-76
2021/12/15 09:57:30;;;;;;;25.97;16.30;;;9.80;99.90;;;;;;5112778;28;20226;-76
2021/12/15 10:19:25;;;;;;;26.33;15.73;;;9.90;99.90;;;;;;5074912;28;20177;-72
2021/12/15 10:22:42;;;;;;;25.50;16.53;;;9.80;99.90;;;;;;5111652;28;20158;-72
2021/12/15 10:25:16;;;;;;;27.17;16.10;;;9.80;99.90;;;;;;5104922;28;20217;-72
2021/12/15 10:27:47;;;;;;;29.20;16.10;;;9.90;99.90;;;;;;5113177;28;20180;-72
2021/12/15 10:30:16;;;;;;;24.27;15.13;;;9.80;99.90;;;;;;5105569;28;20173;-72
2021/12/15 10:32:43;;;;;;;25.73;15.43;;;9.90;99.90;;;;;;5113356;28;20223;-71
2021/12/15 10:35:11;;;;;;;26.63;16.60;;;9.90;99.90;;;;;;5105852;28;20266;-72
2021/12/15 10:37:38;;;;;;;22.63;14.93;;;9.90;99.90;;;;;;5113531;28;20177;-72
2021/12/15 10:40:12;;;;;;;26.73;15.30;;;9.90;99.90;;;;;;5104490;28;20169;-71
2021/12/15 10:42:38;;;;;;;27.87;16.37;;;9.90;99.90;;;;;;5113091;28;20686;-71
2021/12/15 10:45:07;;;;;;;22.63;14.57;;;9.90;99.90;;;;;;5104393;28;20292;-72
2021/12/15 10:47:49;;;;;;;21.93;14.63;;;9.80;99.90;;;;;;5112040;28;20283;-72
2021/12/15 10:50:20;;;;;;;27.67;16.87;;;9.80;99.90;;;;;;5106027;28;20185;-72
2021/12/15 10:52:54;;;;;;;24.07;14.77;;;9.80;99.90;;;;;;5113062;28;20181;-72
2021/12/15 10:55:27;;;;;;;22.53;14.57;;;9.80;99.90;;;;;;5112798;28;20676;-72
2021/12/15 10:57:52;;;;;;;23.47;14.37;;;9.80;99.90;;;;;;5111125;28;20172;-71
2021/12/15 11:00:19;;;;;;;20.93;13.77;;;9.80;99.90;;;;;;5107700;28;20574;-72
2021/12/15 11:02:46;;;;;;;24.87;14.43;;;9.80;99.90;;;;;;5117181;28;20211;-72
2021/12/15 11:05:17;;;;;;;23.37;13.00;;;9.80;99.90;;;;;;5116577;28;20201;-72
2021/12/15 11:07:49;;;;;;;21.60;14.03;;;9.80;99.90;;;;;;5113479;28;20166;-70
2021/12/15 11:10:36;;;;;;;22.90;14.50;;;9.90;99.90;;;;;;5109877;28;20169;-72
2021/12/15 11:13:12;;;;;;;20.00;12.97;;;9.90;99.90;;;;;;5115474;28;20166;-72
2021/12/15 11:15:41;;;;;;;21.93;13.10;;;9.90;99.90;;;;;;5115518;28;20165;-72
2021/12/15 11:18:23;;;;;;;23.23;13.83;;;10.00;99.90;;;;;;5108398;28;20180;-72
2021/12/15 11:20:59;;;;;;;20.07;12.83;;;10.00;99.90;;;;;;5115153;28;20192;-72
2021/12/15 11:23:29;;;;;;;18.47;11.83;;;10.00;99.90;;;;;;5110564;28;20188;-72
2021/12/15 11:26:00;;;;;;;22.60;13.63;;;10.00;99.90;;;;;;5114771;28;20194;-72
2021/12/15 11:28:32;;;;;;;22.03;12.43;;;10.00;99.90;;;;;;5115846;28;20174;-72
2021/12/15 11:30:58;;;;;;;19.00;12.07;;;10.00;99.90;;;;;;5106594;28;20197;-72
2021/12/15 11:33:37;;;;;;;18.87;12.17;;;10.10;99.90;;;;;;5115007;28;20189;-72
2021/12/15 11:36:05;;;;;;;19.33;12.60;;;10.10;99.90;;;;;;5114833;28;20165;-72
2021/12/15 11:38:33;;;;;;;21.90;12.80;;;10.10;99.90;;;;;;5114441;28;20206;-74
2021/12/15 11:40:59;;;;;;;19.57;12.30;;;10.20;99.90;;;;;;5115281;28;20189;-72
2021/12/15 11:43:27;;;;;;;18.63;11.57;;;10.30;99.90;;;;;;5114823;28;20170;-72
2021/12/15 11:45:53;;;;;;;23.60;12.83;;;10.20;99.90;;;;;;5114721;28;20205;-72
2021/12/15 11:48:27;;;;;;;20.00;12.90;;;10.30;99.90;;;;;;5109569;28;20166;-73
2021/12/15 11:50:57;;;;;;;18.23;12.63;;;10.40;99.90;;;;;;5114903;28;20597;-71
2021/12/15 11:53:36;;;;;;;16.50;11.30;;;10.50;99.90;;;;;;5109969;28;20166;-72
2021/12/15 11:56:32;;;;;;;19.73;12.67;;;10.60;99.90;;;;;;5114584;28;20203;-73
2021/12/15 11:59:12;;;;;;;20.17;11.70;;;10.60;99.90;;;;;;5114655;28;20170;-73
2021/12/15 12:01:47;;;;;;;15.67;10.80;;;10.60;99.90;;;;;;5115817;28;20181;-72
2021/12/15 12:04:24;;;;;;;16.03;9.97;;;10.60;99.90;;;;;;5108124;28;20296;-72
2021/12/15 12:06:55;;;;;;;23.33;11.27;;;10.60;99.90;;;;;;5114691;28;20248;-72
2021/12/15 12:09:21;;;;;;;18.33;10.90;;;10.50;99.90;;;;;;5109728;28;20164;-71
2021/12/15 12:11:58;;;;;;;15.27;10.10;;;10.60;99.90;;;;;;5114899;28;20173;-72
2021/12/15 12:14:39;;;;;;;13.53;9.80;;;10.60;99.90;;;;;;5109872;28;20186;-71
2021/12/15 12:17:13;;;;;;;17.50;10.30;;;10.70;99.90;;;;;;5114892;28;20166;-71
2021/12/15 12:19:48;;;;;;;13.67;9.00;;;10.70;99.90;;;;;;5115708;28;20671;-71
2021/12/15 12:22:15;;;;;;;16.27;10.20;;;10.80;99.90;;;;;;5108443;28;20166;-73
2021/12/15 12:24:44;;;;;;;15.83;9.53;;;10.70;99.90;;;;;;5114383;28;20202;-72
2021/12/15 12:27:10;;;;;;;17.07;9.83;;;10.70;99.90;;;;;;5107331;28;20188;-72
2021/12/15 12:29:36;;;;;;;17.37;10.67;;;10.70;99.90;;;;;;5114972;28;20162;-72
2021/12/15 12:32:04;;;;;;;17.47;10.67;;;10.70;99.90;;;;;;5106182;28;20222;-73
2021/12/15 12:34:30;;;;;;;14.53;9.07;;;10.60;99.90;;;;;;5114025;28;20285;-71
2021/12/15 12:36:56;;;;;;;16.57;10.33;;;10.70;99.90;;;;;;5114075;28;20169;-73
2021/12/15 12:39:30;;;;;;;12.33;8.77;;;10.60;99.90;;;;;;5113614;28;20637;-72
2021/12/15 12:41:57;;;;;;;16.37;10.57;;;10.60;99.90;;;;;;5113767;28;20183;-72
2021/12/15 12:44:23;;;;;;;16.30;10.27;;;10.50;99.90;;;;;;5108857;28;20213;-71
2021/12/15 12:47:00;;;;;;;19.70;10.80;;;10.60;99.90;;;;;;5113943;28;20173;-72
2021/12/15 13:00:58;;;;;;;14.67;9.73;;;10.50;99.90;;;;;;5115445;28;20191;-71
2021/12/15 13:03:36;;;;;;;16.30;10.37;;;10.50;99.90;;;;;;5108901;28;20217;-71
2021/12/15 13:06:08;;;;;;;17.63;10.67;;;10.40;99.90;;;;;;5114855;28;20618;-71
2021/12/15 13:08:48;;;;;;;16.27;9.93;;;10.40;99.90;;;;;;5110040;28;20260;-72
2021/12/15 13:11:17;;;;;;;15.20;10.37;;;10.40;99.90;;;;;;5107244;28;20161;-72
2021/12/15 13:14:09;;;;;;;13.07;9.27;;;10.40;99.90;;;;;;5113412;28;20200;-72
2021/12/15 13:16:50;;;;;;;16.83;10.30;;;10.50;99.90;;;;;;5110142;28;20162;-76
2021/12/15 13:19:21;;;;;;;16.87;9.70;;;10.50;99.90;;;;;;5107223;28;20162;-72
2021/12/15 13:30:54;;;;;;;15.70;10.63;;;10.50;99.90;;;;;;5113565;28;20228;-72
2021/12/15 13:33:43;;;;;;;22.97;14.43;;;10.50;99.90;;;;;;5106550;28;20649;-72
2021/12/15 13:36:20;;;;;;;19.97;11.93;;;10.50;99.90;;;;;;5112234;28;20185;-73
2021/12/15 13:38:55;;;;;;;15.80;9.97;;;10.50;99.90;;;;;;5111727;28;20268;-72
2021/12/15 13:44:37;;;;;;;25.20;16.70;;;10.50;99.90;;;;;;5112866;28;20189;-73
2021/12/15 13:47:09;;;;;;;21.30;13.93;;;10.50;99.90;;;;;;5112833;28;20165;-73
2021/12/15 13:49:44;;;;;;;20.40;12.83;;;10.50;99.90;;;;;;5108117;28;20186;-72
2021/12/15 13:52:30;;;;;;;21.07;13.37;;;10.50;99.90;;;;;;5105150;28;20185;-72
2021/12/15 13:55:13;;;;;;;19.13;11.00;;;10.50;99.90;;;;;;5111870;28;20193;-72
2021/12/15 13:57:50;;;;;;;17.17;11.27;;;10.40;99.90;;;;;;5111804;28;20495;-73
2021/12/15 14:00:19;;;;;;;16.03;10.30;;;10.40;99.90;;;;;;5112806;28;20166;-73
2021/12/15 14:02:54;;;;;;;19.13;12.00;;;10.50;99.90;;;;;;5110123;28;20192;-73
2021/12/15 14:05:24;;;;;;;17.03;10.97;;;10.40;99.90;;;;;;5112493;28;20292;-72
2021/12/15 14:08:13;;;;;;;17.23;10.10;;;10.40;99.90;;;;;;5110203;28;20231;-73
2021/12/15 14:10:44;;;;;;;18.63;11.13;;;10.40;99.90;;;;;;5109335;28;20226;-73
2021/12/15 14:13:10;;;;;;;17.27;10.37;;;10.40;99.90;;;;;;5105209;28;20162;-73
2021/12/15 14:15:35;;;;;;;17.30;10.67;;;10.40;99.90;;;;;;5111515;28;20536;-73
2021/12/15 14:18:01;;;;;;;18.50;11.57;;;10.40;99.90;;;;;;5103511;28;20569;-75
2021/12/15 14:20:28;;;;;;;17.87;10.93;;;10.40;99.90;;;;;;5112396;28;20166;-73
2021/12/15 14:23:03;;;;;;;17.87;11.27;;;10.30;99.90;;;;;;5112571;28;20174;-72
2021/12/15 14:25:33;;;;;;;19.77;12.67;;;10.30;99.90;;;;;;5107070;28;20197;-73